Time;durP1;ratioP1;P1;durP2;ratioP2;P2;SDS_P1;SDS_P2;PMS_P1;PMS_P2;Temp;Humidity;BMP_temperature;BMP_pressure;BME280_temperature;BME280_humidity;BME280_pressure;Samples;Min_cycle;Max_cycle;Signal;HPM_P1;HPM_P2
2022/11/15 00:00:43;;;;;;;38.78;16.15;;;;;;;;;;5036556;28;20046;-48
2022/11/15 00:03:10;;;;;;;41.13;16.90;;;;;;;;;;5047560;28;20168;-48
2022/11/15 00:05:36;;;;;;;36.53;15.65;;;;;;;;;;5047416;28;20136;-48
2022/11/15 00:08:02;;;;;;;41.85;17.20;;;;;;;;;;5035703;28;20791;-48
2022/11/15 00:10:30;;;;;;;41.22;17.77;;;;;;;;;;5038135;28;20145;-50
2022/11/15 00:12:58;;;;;;;41.03;18.00;;;;;;;;;;5036710;28;20144;-48
2022/11/15 00:15:25;;;;;;;39.22;18.00;;;;;;;;;;5046646;28;20129;-48
2022/11/15 00:17:51;;;;;;;36.55;15.75;;;;;;;;;;5046236;28;20139;-50
2022/11/15 00:20:18;;;;;;;41.15;16.73;;;;;;;;;;5049345;28;20084;-48
2022/11/15 00:22:44;;;;;;;38.72;15.32;;;;;;;;;;5047416;28;20164;-49
2022/11/15 00:25:10;;;;;;;42.05;17.27;;;;;;;;;;5049732;28;20049;-49
2022/11/15 00:27:38;;;;;;;36.67;15.82;;;;;;;;;;5035184;28;20064;-48
2022/11/15 00:30:05;;;;;;;43.80;18.25;;;;;;;;;;5034960;28;20081;-48
2022/11/15 00:32:32;;;;;;;36.70;15.65;;;;;;;;;;5047201;28;20084;-48
2022/11/15 00:34:58;;;;;;;38.53;16.92;;;;;;;;;;5041592;28;20059;-48
2022/11/15 00:37:25;;;;;;;40.13;15.05;;;;;;;;;;5051373;28;20060;-48
2022/11/15 00:39:51;;;;;;;31.15;14.07;;;;;;;;;;5041356;28;20083;-48
2022/11/15 00:42:17;;;;;;;40.60;16.55;;;;;;;;;;5041963;28;20129;-49
2022/11/15 00:44:45;;;;;;;36.13;15.90;;;;;;;;;;5034313;28;20041;-49
2022/11/15 00:47:11;;;;;;;39.55;17.48;;;;;;;;;;5038002;28;20128;-49
2022/11/15 00:49:38;;;;;;;38.03;17.17;;;;;;;;;;5053020;28;20079;-48
2022/11/15 00:52:04;;;;;;;40.58;16.10;;;;;;;;;;5040447;28;20136;-48
2022/11/15 00:54:31;;;;;;;45.03;17.65;;;;;;;;;;5054037;28;20124;-48
2022/11/15 00:56:57;;;;;;;44.03;16.83;;;;;;;;;;5053553;28;20102;-49
2022/11/15 00:59:24;;;;;;;37.75;16.35;;;;;;;;;;5053854;28;20098;-47
2022/11/15 01:01:51;;;;;;;38.80;15.23;;;;;;;;;;5047090;28;20111;-49
2022/11/15 01:04:18;;;;;;;39.50;16.67;;;;;;;;;;5052340;28;20156;-48
2022/11/15 01:06:44;;;;;;;45.55;17.98;;;;;;;;;;5048717;28;20072;-48
2022/11/15 01:09:11;;;;;;;43.80;17.73;;;;;;;;;;5033895;28;20050;-47
2022/11/15 01:11:37;;;;;;;44.78;18.88;;;;;;;;;;5047128;28;20053;-48
2022/11/15 01:14:04;;;;;;;55.15;19.40;;;;;;;;;;5034404;28;20065;-48
2022/11/15 01:16:31;;;;;;;49.22;18.60;;;;;;;;;;5041912;28;20060;-49
2022/11/15 01:18:58;;;;;;;54.20;20.45;;;;;;;;;;5038700;28;20056;-48
2022/11/15 01:21:25;;;;;;;50.25;18.52;;;;;;;;;;5052345;28;20087;-49
2022/11/15 01:23:53;;;;;;;56.78;20.80;;;;;;;;;;5050549;28;20044;-48
2022/11/15 01:26:20;;;;;;;46.30;20.15;;;;;;;;;;5052130;28;20057;-48
2022/11/15 01:28:46;;;;;;;49.90;19.73;;;;;;;;;;5034164;28;20462;-49
2022/11/15 01:31:14;;;;;;;47.58;18.60;;;;;;;;;;5047841;28;20064;-49
2022/11/15 01:33:40;;;;;;;53.22;18.45;;;;;;;;;;5053179;28;20106;-50
2022/11/15 01:36:09;;;;;;;48.38;19.65;;;;;;;;;;5052588;28;20110;-49
2022/11/15 01:38:36;;;;;;;47.60;20.15;;;;;;;;;;5053504;28;20110;-49
2022/11/15 01:41:02;;;;;;;50.67;19.70;;;;;;;;;;5053224;28;20110;-49
2022/11/15 01:43:31;;;;;;;47.13;18.40;;;;;;;;;;5052855;28;20464;-48
2022/11/15 01:45:59;;;;;;;48.53;18.90;;;;;;;;;;5039335;28;20506;-48
2022/11/15 01:48:30;;;;;;;52.50;20.92;;;;;;;;;;5046593;28;20049;-47
2022/11/15 01:50:57;;;;;;;54.40;19.55;;;;;;;;;;5041682;28;20436;-48
2022/11/15 01:53:25;;;;;;;51.88;19.63;;;;;;;;;;5045066;28;20408;-48
2022/11/15 01:55:52;;;;;;;53.58;19.80;;;;;;;;;;5052755;28;20037;-48
2022/11/15 01:58:19;;;;;;;53.80;20.20;;;;;;;;;;5052612;28;20446;-50
2022/11/15 02:00:45;;;;;;;56.97;22.27;;;;;;;;;;5053359;28;20045;-48
2022/11/15 02:03:11;;;;;;;46.83;18.80;;;;;;;;;;5052245;28;20045;-48
2022/11/15 02:05:38;;;;;;;47.63;19.65;;;;;;;;;;5052334;28;20393;-52
2022/11/15 02:08:05;;;;;;;49.50;20.05;;;;;;;;;;5039564;28;20057;-48
2022/11/15 02:10:33;;;;;;;54.97;20.20;;;;;;;;;;5048894;28;20048;-49
2022/11/15 02:13:00;;;;;;;51.22;19.02;;;;;;;;;;5038147;28;20061;-49
2022/11/15 02:15:29;;;;;;;56.97;21.20;;;;;;;;;;5047702;28;20045;-48
2022/11/15 02:18:00;;;;;;;55.72;20.38;;;;;;;;;;5047792;28;20057;-48
2022/11/15 02:20:35;;;;;;;51.60;18.25;;;;;;;;;;5032811;28;20111;-49
2022/11/15 02:23:12;;;;;;;55.73;20.30;;;;;;;;;;5045888;28;20056;-49
2022/11/15 02:25:42;;;;;;;48.03;18.33;;;;;;;;;;5052252;28;20330;-49
2022/11/15 02:28:32;;;;;;;55.25;17.48;;;;;;;;;;5049114;28;20049;-49
2022/11/15 02:31:04;;;;;;;59.35;20.52;;;;;;;;;;5038643;28;20057;-47
2022/11/15 02:33:35;;;;;;;59.35;22.10;;;;;;;;;;5032064;28;20114;-49
2022/11/15 02:36:03;;;;;;;48.33;18.25;;;;;;;;;;5046286;28;20057;-50
2022/11/15 02:38:32;;;;;;;55.15;20.67;;;;;;;;;;5043522;28;20111;-49
2022/11/15 02:41:00;;;;;;;65.07;22.10;;;;;;;;;;5045876;28;20091;-48
2022/11/15 02:46:17;;;;;;;58.42;20.85;;;;;;;;;;5047847;28;20056;-48
2022/11/15 02:48:44;;;;;;;54.95;20.13;;;;;;;;;;5032137;28;20053;-48
2022/11/15 02:51:10;;;;;;;50.88;18.27;;;;;;;;;;5049920;28;20061;-49
2022/11/15 02:53:37;;;;;;;51.75;18.23;;;;;;;;;;5054225;28;20053;-48
2022/11/15 02:56:04;;;;;;;48.50;17.13;;;;;;;;;;5044897;28;20053;-50
2022/11/15 02:58:38;;;;;;;46.15;17.10;;;;;;;;;;5036326;28;20110;-50
2022/11/15 03:01:10;;;;;;;47.27;16.67;;;;;;;;;;5032714;28;20123;-48
2022/11/15 03:03:49;;;;;;;48.90;17.73;;;;;;;;;;5037824;28;20080;-51
2022/11/15 03:06:21;;;;;;;44.88;15.63;;;;;;;;;;5052223;28;20045;-48
2022/11/15 03:08:54;;;;;;;50.67;18.95;;;;;;;;;;5044940;28;20481;-49
2022/11/15 03:11:21;;;;;;;52.13;19.75;;;;;;;;;;5046358;28;20115;-49
2022/11/15 03:13:53;;;;;;;45.60;19.35;;;;;;;;;;5041111;28;20061;-49
2022/11/15 03:16:21;;;;;;;54.33;19.50;;;;;;;;;;5031947;28;20116;-49
2022/11/15 03:18:52;;;;;;;50.10;17.73;;;;;;;;;;5040945;28;20053;-48
2022/11/15 03:21:20;;;;;;;52.53;19.42;;;;;;;;;;5042432;28;20115;-49
2022/11/15 03:23:48;;;;;;;51.25;19.50;;;;;;;;;;5047950;28;20045;-49
2022/11/15 03:26:15;;;;;;;55.80;18.88;;;;;;;;;;5046552;28;20111;-51
2022/11/15 03:28:45;;;;;;;58.42;20.25;;;;;;;;;;5035662;28;20084;-49
2022/11/15 03:33:56;;;;;;;56.15;20.25;;;;;;;;;;5036347;28;20049;-51
2022/11/15 03:36:23;;;;;;;59.85;20.00;;;;;;;;;;5050871;28;20061;-48
2022/11/15 03:38:49;;;;;;;61.28;20.50;;;;;;;;;;5047123;28;20049;-48
2022/11/15 03:41:17;;;;;;;50.63;18.88;;;;;;;;;;5033684;28;20184;-48
2022/11/15 03:43:45;;;;;;;58.40;19.98;;;;;;;;;;5036930;28;20053;-50
2022/11/15 03:46:13;;;;;;;53.38;18.98;;;;;;;;;;5035780;28;20111;-49
2022/11/15 03:48:42;;;;;;;60.38;18.63;;;;;;;;;;5048992;28;20046;-47
2022/11/15 03:51:10;;;;;;;44.78;15.75;;;;;;;;;;5035422;28;20053;-49
2022/11/15 03:53:37;;;;;;;54.42;17.75;;;;;;;;;;5047980;28;20083;-48
2022/11/15 03:56:03;;;;;;;53.92;18.98;;;;;;;;;;5043879;28;20648;-48
2022/11/15 03:58:30;;;;;;;59.92;18.55;;;;;;;;;;5055174;28;20053;-49
2022/11/15 04:00:56;;;;;;;60.45;19.90;;;;;;;;;;5041898;28;20512;-49
2022/11/15 04:03:23;;;;;;;51.53;17.95;;;;;;;;;;5055455;28;20453;-48
2022/11/15 04:05:49;;;;;;;58.22;19.55;;;;;;;;;;5052497;28;20131;-49
2022/11/15 04:08:17;;;;;;;58.50;20.05;;;;;;;;;;5036103;28;20053;-48
2022/11/15 04:10:43;;;;;;;52.47;18.25;;;;;;;;;;5049366;28;20126;-49
2022/11/15 04:13:10;;;;;;;54.70;18.60;;;;;;;;;;5048133;28;20115;-48
2022/11/15 04:15:37;;;;;;;52.25;18.02;;;;;;;;;;5048378;28;20049;-49
2022/11/15 04:18:03;;;;;;;53.65;16.45;;;;;;;;;;5054720;28;20057;-50
2022/11/15 04:26:02;;;;;;;53.85;17.42;;;;;;;;;;5047615;28;20743;-48
2022/11/15 04:28:29;;;;;;;59.83;19.83;;;;;;;;;;5035005;28;20126;-49
2022/11/15 04:30:55;;;;;;;50.15;15.98;;;;;;;;;;5034784;28;20049;-49
2022/11/15 04:33:22;;;;;;;53.35;16.05;;;;;;;;;;5040184;28;20100;-49
2022/11/15 04:38:29;;;;;;;51.15;16.98;;;;;;;;;;5048417;28;20077;-50
2022/11/15 04:40:55;;;;;;;43.95;14.77;;;;;;;;;;5047890;28;20048;-51
2022/11/15 04:43:23;;;;;;;50.15;18.73;;;;;;;;;;5040769;28;20454;-49
2022/11/15 04:45:49;;;;;;;58.22;18.90;;;;;;;;;;5053922;28;20477;-49
2022/11/15 04:48:16;;;;;;;46.17;16.77;;;;;;;;;;5038176;28;20136;-48
2022/11/15 04:50:42;;;;;;;44.17;16.30;;;;;;;;;;5054253;28;20139;-48
2022/11/15 04:53:09;;;;;;;51.65;16.67;;;;;;;;;;5049330;28;20140;-49
2022/11/15 04:55:35;;;;;;;49.30;18.02;;;;;;;;;;5042534;28;20673;-48
2022/11/15 04:58:02;;;;;;;45.83;16.60;;;;;;;;;;5051308;28;20072;-49
2022/11/15 05:00:30;;;;;;;46.40;15.77;;;;;;;;;;5042938;28;20132;-49
2022/11/15 05:05:41;;;;;;;51.60;17.45;;;;;;;;;;5040046;28;20060;-49
2022/11/15 05:08:08;;;;;;;44.45;17.00;;;;;;;;;;5053780;28;20063;-49
2022/11/15 05:10:34;;;;;;;45.80;14.38;;;;;;;;;;5046148;28;20076;-48
2022/11/15 05:13:00;;;;;;;46.05;17.40;;;;;;;;;;5039182;28;20148;-51
2022/11/15 05:15:27;;;;;;;46.95;17.95;;;;;;;;;;5045574;28;20645;-49
2022/11/15 05:18:00;;;;;;;48.70;17.40;;;;;;;;;;5045276;28;20057;-48
2022/11/15 05:20:26;;;;;;;43.85;15.27;;;;;;;;;;5040027;28;20063;-48
2022/11/15 05:22:53;;;;;;;45.65;16.25;;;;;;;;;;5043311;28;20141;-49
2022/11/15 05:25:20;;;;;;;45.10;14.60;;;;;;;;;;5052755;28;20100;-49
2022/11/15 05:27:46;;;;;;;44.72;16.88;;;;;;;;;;5050695;28;20140;-49
2022/11/15 05:30:12;;;;;;;47.40;17.52;;;;;;;;;;5043409;28;20096;-49
2022/11/15 05:32:39;;;;;;;54.65;18.63;;;;;;;;;;5046261;28;20080;-48
2022/11/15 05:35:08;;;;;;;50.10;16.95;;;;;;;;;;5040163;28;20148;-48
2022/11/15 05:37:34;;;;;;;49.28;17.38;;;;;;;;;;5048014;28;20400;-48
2022/11/15 05:40:00;;;;;;;47.70;15.50;;;;;;;;;;5051275;28;20145;-48
2022/11/15 05:42:27;;;;;;;43.08;16.67;;;;;;;;;;5042156;28;20434;-51
2022/11/15 05:44:54;;;;;;;38.10;14.80;;;;;;;;;;5046991;28;20149;-49
2022/11/15 05:47:22;;;;;;;42.90;14.80;;;;;;;;;;5045968;28;20049;-49
2022/11/15 05:49:48;;;;;;;42.45;13.35;;;;;;;;;;5046517;28;20045;-47
2022/11/15 05:52:19;;;;;;;39.22;13.93;;;;;;;;;;5033686;28;20132;-50
2022/11/15 05:54:45;;;;;;;43.47;14.13;;;;;;;;;;5048396;28;20100;-48
2022/11/15 05:57:12;;;;;;;39.95;16.13;;;;;;;;;;5041894;28;20136;-50
2022/11/15 05:59:40;;;;;;;38.40;15.82;;;;;;;;;;5037921;28;20168;-47
2022/11/15 06:02:06;;;;;;;39.00;13.80;;;;;;;;;;5041222;28;20065;-48
2022/11/15 06:04:33;;;;;;;43.78;15.25;;;;;;;;;;5037893;28;20206;-47
2022/11/15 06:06:59;;;;;;;37.25;13.38;;;;;;;;;;5048830;28;20492;-49
2022/11/15 06:09:27;;;;;;;29.60;11.75;;;;;;;;;;5039126;28;20144;-51
2022/11/15 06:11:53;;;;;;;29.48;12.82;;;;;;;;;;5051358;28;20747;-51
2022/11/15 06:14:20;;;;;;;27.75;11.07;;;;;;;;;;5035695;28;20140;-50
2022/11/15 06:16:46;;;;;;;29.10;10.80;;;;;;;;;;5036290;28;20115;-49
2022/11/15 06:19:12;;;;;;;29.73;10.65;;;;;;;;;;5035966;28;20140;-49
2022/11/15 06:21:39;;;;;;;31.10;11.45;;;;;;;;;;5033271;28;20080;-48
2022/11/15 06:24:06;;;;;;;31.70;11.32;;;;;;;;;;5047513;28;20144;-48
2022/11/15 06:26:34;;;;;;;28.33;11.68;;;;;;;;;;5032872;28;20141;-49
2022/11/15 06:29:00;;;;;;;29.38;11.18;;;;;;;;;;5045879;28;20145;-49
2022/11/15 06:31:26;;;;;;;28.10;11.50;;;;;;;;;;5035906;28;20072;-49
2022/11/15 06:33:53;;;;;;;29.55;11.80;;;;;;;;;;5035077;28;20046;-50
2022/11/15 06:36:20;;;;;;;31.38;11.88;;;;;;;;;;5034422;28;20059;-49
2022/11/15 06:38:47;;;;;;;28.23;12.32;;;;;;;;;;5046189;28;20634;-49
2022/11/15 06:41:14;;;;;;;31.50;11.27;;;;;;;;;;5032887;28;20141;-50
2022/11/15 06:43:42;;;;;;;28.75;10.82;;;;;;;;;;5032783;28;20043;-49
2022/11/15 06:46:09;;;;;;;29.48;10.38;;;;;;;;;;5032055;28;20115;-48
2022/11/15 06:48:35;;;;;;;32.85;10.75;;;;;;;;;;5032051;28;20545;-49
2022/11/15 06:51:03;;;;;;;32.80;10.65;;;;;;;;;;5036812;28;20045;-49
2022/11/15 06:53:30;;;;;;;27.00;10.38;;;;;;;;;;5034451;28;20048;-49
2022/11/15 06:55:59;;;;;;;30.88;10.25;;;;;;;;;;5040787;28;20049;-49
2022/11/15 06:58:25;;;;;;;29.45;9.98;;;;;;;;;;5051233;28;20137;-49
2022/11/15 07:00:54;;;;;;;31.13;11.00;;;;;;;;;;5038757;28;20141;-48
2022/11/15 07:03:20;;;;;;;33.90;11.30;;;;;;;;;;5040449;28;20049;-49
2022/11/15 07:05:51;;;;;;;30.90;12.77;;;;;;;;;;5049783;28;20044;-49
2022/11/15 07:08:17;;;;;;;29.92;12.40;;;;;;;;;;5032783;28;20141;-49
2022/11/15 07:10:44;;;;;;;30.13;11.40;;;;;;;;;;5040966;28;20130;-48
2022/11/15 07:13:10;;;;;;;32.28;11.98;;;;;;;;;;5041544;28;20136;-51
2022/11/15 07:15:36;;;;;;;33.63;13.63;;;;;;;;;;5044668;28;20207;-49
2022/11/15 07:18:04;;;;;;;28.30;10.30;;;;;;;;;;5040600;28;20053;-49
2022/11/15 07:20:31;;;;;;;31.23;11.20;;;;;;;;;;5050122;28;20537;-50
2022/11/15 07:23:02;;;;;;;28.50;12.00;;;;;;;;;;5042126;28;20144;-51
2022/11/15 07:25:29;;;;;;;32.33;11.02;;;;;;;;;;5042169;28;20132;-49
2022/11/15 07:27:56;;;;;;;25.08;11.40;;;;;;;;;;5051885;28;20144;-50
2022/11/15 07:30:22;;;;;;;23.60;9.32;;;;;;;;;;5044889;28;20053;-53
2022/11/15 07:32:52;;;;;;;26.02;9.20;;;;;;;;;;5045848;28;20132;-50
2022/11/15 07:35:20;;;;;;;27.60;9.57;;;;;;;;;;5052870;28;20135;-50
2022/11/15 07:37:53;;;;;;;27.42;10.38;;;;;;;;;;5052817;28;20041;-49
2022/11/15 07:40:19;;;;;;;24.33;9.60;;;;;;;;;;5040041;28;20075;-50
2022/11/15 07:42:55;;;;;;;34.92;10.45;;;;;;;;;;5036229;28;20132;-50
2022/11/15 07:45:22;;;;;;;32.10;11.52;;;;;;;;;;5047708;28;20140;-51
2022/11/15 07:47:49;;;;;;;27.20;10.88;;;;;;;;;;5046869;28;20103;-50
2022/11/15 07:50:15;;;;;;;38.25;10.48;;;;;;;;;;5048190;28;20140;-46
2022/11/15 07:52:44;;;;;;;25.40;9.65;;;;;;;;;;5043352;28;20455;-47
2022/11/15 07:55:11;;;;;;;26.67;9.57;;;;;;;;;;5048390;28;20057;-46
2022/11/15 07:57:37;;;;;;;26.58;9.98;;;;;;;;;;5047577;28;20135;-47
2022/11/15 08:00:04;;;;;;;28.75;9.90;;;;;;;;;;5042046;28;20144;-54
2022/11/15 08:02:30;;;;;;;31.98;11.52;;;;;;;;;;5045446;28;20092;-52
2022/11/15 08:04:57;;;;;;;29.17;10.55;;;;;;;;;;5050506;28;20442;-50
2022/11/15 08:07:23;;;;;;;24.95;10.10;;;;;;;;;;5048969;28;20131;-49
2022/11/15 08:09:51;;;;;;;26.88;9.68;;;;;;;;;;5047182;28;20132;-49
2022/11/15 08:12:17;;;;;;;28.55;10.40;;;;;;;;;;5054870;28;20271;-50
2022/11/15 08:14:44;;;;;;;26.20;9.57;;;;;;;;;;5046992;28;20042;-49
2022/11/15 08:17:10;;;;;;;25.02;11.15;;;;;;;;;;5043754;28;20063;-49
2022/11/15 08:19:36;;;;;;;25.52;9.98;;;;;;;;;;5040753;28;20136;-50
2022/11/15 08:22:03;;;;;;;29.98;10.10;;;;;;;;;;5047369;28;20049;-49
2022/11/15 08:24:29;;;;;;;23.90;9.60;;;;;;;;;;5052317;28;20666;-47
2022/11/15 08:26:57;;;;;;;27.63;10.45;;;;;;;;;;5039010;28;20137;-48
2022/11/15 08:29:23;;;;;;;29.67;9.98;;;;;;;;;;5050792;28;20144;-46
2022/11/15 08:31:50;;;;;;;31.17;11.90;;;;;;;;;;5044264;28;20128;-46
2022/11/15 08:34:16;;;;;;;37.28;12.00;;;;;;;;;;5052892;28;20059;-47
2022/11/15 08:36:42;;;;;;;28.17;10.95;;;;;;;;;;5044125;28;20545;-50
2022/11/15 08:39:10;;;;;;;36.00;11.35;;;;;;;;;;5050223;28;20049;-49
2022/11/15 08:41:38;;;;;;;27.73;10.05;;;;;;;;;;5041947;28;20136;-51
2022/11/15 08:44:06;;;;;;;23.83;10.13;;;;;;;;;;5052964;28;20152;-53
2022/11/15 08:46:32;;;;;;;25.50;10.32;;;;;;;;;;5051582;28;20149;-52
2022/11/15 08:48:59;;;;;;;28.15;9.95;;;;;;;;;;5046839;28;20053;-50
2022/11/15 08:51:25;;;;;;;27.38;10.40;;;;;;;;;;5043902;28;20140;-49
2022/11/15 08:53:52;;;;;;;22.88;9.48;;;;;;;;;;5050998;28;20044;-51
2022/11/15 08:56:18;;;;;;;27.90;10.68;;;;;;;;;;5048251;28;20374;-50
2022/11/15 08:58:44;;;;;;;25.95;10.65;;;;;;;;;;5035572;28;20140;-47
2022/11/15 09:01:17;;;;;;;27.80;9.70;;;;;;;;;;5043597;28;20053;-50
2022/11/15 09:03:44;;;;;;;30.90;10.63;;;;;;;;;;5043856;28;20454;-48
2022/11/15 09:06:10;;;;;;;23.75;9.52;;;;;;;;;;5037499;28;20140;-49
2022/11/15 09:08:36;;;;;;;24.88;9.90;;;;;;;;;;5052595;28;20135;-50
2022/11/15 09:11:03;;;;;;;27.92;10.05;;;;;;;;;;5048793;28;20160;-48
2022/11/15 09:13:30;;;;;;;23.63;9.20;;;;;;;;;;5047555;28;20136;-49
2022/11/15 09:15:58;;;;;;;24.98;10.20;;;;;;;;;;5039213;28;20147;-49
2022/11/15 09:18:25;;;;;;;22.40;8.93;;;;;;;;;;5051836;28;20051;-47
2022/11/15 09:20:52;;;;;;;30.73;12.82;;;;;;;;;;5045720;28;20156;-48
2022/11/15 09:23:18;;;;;;;26.23;8.73;;;;;;;;;;5047257;28;20136;-48
2022/11/15 09:25:45;;;;;;;28.95;9.73;;;;;;;;;;5035112;28;20644;-47
2022/11/15 09:28:11;;;;;;;22.48;9.50;;;;;;;;;;5041536;28;20041;-47
2022/11/15 09:30:37;;;;;;;26.33;10.10;;;;;;;;;;5041515;28;20136;-47
2022/11/15 09:33:07;;;;;;;25.08;10.93;;;;;;;;;;5048541;28;20152;-48
2022/11/15 09:35:35;;;;;;;22.13;8.95;;;;;;;;;;5047430;28;20615;-49
2022/11/15 09:38:01;;;;;;;22.38;8.98;;;;;;;;;;5051714;28;20453;-47
2022/11/15 09:40:27;;;;;;;22.50;9.20;;;;;;;;;;5046432;28;20136;-47
2022/11/15 09:43:02;;;;;;;25.70;9.23;;;;;;;;;;5043225;28;20085;-47
2022/11/15 09:45:31;;;;;;;19.10;8.07;;;;;;;;;;5046331;28;20052;-48
2022/11/15 09:48:05;;;;;;;20.17;8.77;;;;;;;;;;5050026;28;20463;-49
2022/11/15 09:50:35;;;;;;;21.23;8.10;;;;;;;;;;5041079;28;20088;-48
2022/11/15 09:53:02;;;;;;;23.80;8.57;;;;;;;;;;5045789;28;20055;-48
2022/11/15 09:55:33;;;;;;;22.92;9.52;;;;;;;;;;5041417;28;20393;-49
2022/11/15 09:58:04;;;;;;;19.02;7.75;;;;;;;;;;5047054;28;20858;-47
2022/11/15 10:00:33;;;;;;;24.65;10.60;;;;;;;;;;5051675;28;20491;-48
2022/11/15 10:03:11;;;;;;;20.73;8.13;;;;;;;;;;5047991;28;20087;-47
2022/11/15 10:05:39;;;;;;;20.02;7.07;;;;;;;;;;5048711;28;20040;-48
2022/11/15 10:08:13;;;;;;;25.65;10.05;;;;;;;;;;5051219;28;20151;-47
2022/11/15 10:10:41;;;;;;;22.98;9.00;;;;;;;;;;5045682;28;20045;-48
2022/11/15 10:13:13;;;;;;;20.73;9.02;;;;;;;;;;5045390;28;20474;-52
2022/11/15 10:15:39;;;;;;;27.25;10.18;;;;;;;;;;5044293;28;20136;-48
2022/11/15 10:18:10;;;;;;;23.52;9.07;;;;;;;;;;5051765;28;20436;-49
2022/11/15 10:20:43;;;;;;;25.05;10.25;;;;;;;;;;5042302;28;20538;-47
2022/11/15 10:23:14;;;;;;;26.05;8.90;;;;;;;;;;5051752;28;20140;-48
2022/11/15 10:25:40;;;;;;;23.52;8.77;;;;;;;;;;5047677;28;20076;-46
2022/11/15 10:28:10;;;;;;;23.70;9.65;;;;;;;;;;5048612;28;20109;-46
2022/11/15 10:30:38;;;;;;;28.55;10.13;;;;;;;;;;5051089;28;20044;-48
2022/11/15 10:33:31;;;;;;;28.17;10.52;;;;;;;;;;5048305;28;20140;-45
2022/11/15 10:36:22;;;;;;;25.55;10.18;;;;;;;;;;4997837;28;20056;-47
2022/11/15 10:38:56;;;;;;;28.48;10.00;;;;;;;;;;5029963;28;20041;-47
2022/11/15 10:41:30;;;;;;;23.98;11.05;;;;;;;;;;5050807;28;20087;-47
2022/11/15 10:44:08;;;;;;;26.92;10.88;;;;;;;;;;5039453;28;20513;-46
2022/11/15 10:46:35;;;;;;;29.63;11.13;;;;;;;;;;5041147;28;20153;-46
2022/11/15 10:49:12;;;;;;;23.10;10.57;;;;;;;;;;5043433;28;20143;-47
2022/11/15 10:51:42;;;;;;;24.90;9.77;;;;;;;;;;5048436;28;20496;-48
2022/11/15 10:54:11;;;;;;;27.98;11.98;;;;;;;;;;5046517;28;20132;-48
2022/11/15 10:56:37;;;;;;;28.45;11.40;;;;;;;;;;5044337;28;20067;-48
2022/11/15 10:59:04;;;;;;;29.13;11.02;;;;;;;;;;5045479;28;20128;-48
2022/11/15 11:01:30;;;;;;;27.38;10.68;;;;;;;;;;5045142;28;20060;-47
2022/11/15 11:04:01;;;;;;;21.60;8.88;;;;;;;;;;5043747;28;20159;-48
2022/11/15 11:06:27;;;;;;;32.78;11.98;;;;;;;;;;5045730;28;20136;-48
2022/11/15 11:08:57;;;;;;;31.30;11.55;;;;;;;;;;5047326;28;20091;-48
2022/11/15 11:11:25;;;;;;;29.65;11.70;;;;;;;;;;5046500;28;20136;-48
2022/11/15 11:13:52;;;;;;;28.38;11.13;;;;;;;;;;5047387;28;20168;-48
2022/11/15 11:16:52;;;;;;;24.40;10.07;;;;;;;;;;5050570;28;20473;-48
2022/11/15 11:19:31;;;;;;;25.55;9.90;;;;;;;;;;4963941;28;20051;-48
2022/11/15 11:22:01;;;;;;;26.40;11.80;;;;;;;;;;4964321;28;20059;-47
2022/11/15 11:24:33;;;;;;;25.95;10.82;;;;;;;;;;5003678;28;20164;-49
2022/11/15 11:27:09;;;;;;;24.83;10.63;;;;;;;;;;5043959;28;20048;-48
2022/11/15 11:29:42;;;;;;;23.05;9.90;;;;;;;;;;5047748;28;20132;-47
2022/11/15 11:32:18;;;;;;;29.27;13.23;;;;;;;;;;5047410;28;20064;-48
2022/11/15 11:34:44;;;;;;;;;;;;;;;;;;5044602;28;20131;-46
2022/11/15 11:37:10;;;;;;;;;;;;;;;;;;5044543;28;19936;-48
2022/11/15 11:39:44;;;;;;;28.35;12.70;;;;;;;;;;5043326;28;20863;-49
2022/11/15 11:42:17;;;;;;;33.15;13.98;;;;;;;;;;5045877;28;20465;-49
2022/11/15 11:44:47;;;;;;;28.27;11.10;;;;;;;;;;5044332;28;20136;-49
2022/11/15 11:47:19;;;;;;;27.35;12.25;;;;;;;;;;5050631;28;20144;-49
2022/11/15 11:49:47;;;;;;;29.70;13.20;;;;;;;;;;5045898;28;20148;-49
2022/11/15 11:52:15;;;;;;;32.60;13.02;;;;;;;;;;5042728;28;20135;-49
2022/11/15 11:54:46;;;;;;;31.73;12.25;;;;;;;;;;5043223;28;20152;-49
2022/11/15 11:57:17;;;;;;;27.73;11.70;;;;;;;;;;5044596;28;20133;-49
2022/11/15 11:59:46;;;;;;;31.38;11.73;;;;;;;;;;5045032;28;20088;-49
2022/11/15 12:02:15;;;;;;;31.83;12.90;;;;;;;;;;5049087;28;20157;-48
2022/11/15 12:04:44;;;;;;;32.50;13.55;;;;;;;;;;5046752;28;20136;-45
2022/11/15 12:07:16;;;;;;;31.35;13.73;;;;;;;;;;5042499;28;20183;-46
2022/11/15 12:09:45;;;;;;;26.38;11.30;;;;;;;;;;5039806;28;20057;-48
2022/11/15 12:12:16;;;;;;;28.45;9.55;;;;;;;;;;5054629;28;20139;-45
2022/11/15 12:14:46;;;;;;;31.50;11.98;;;;;;;;;;5053882;28;20478;-46
2022/11/15 12:17:13;;;;;;;25.73;10.38;;;;;;;;;;5053302;28;20136;-51
2022/11/15 12:19:40;;;;;;;31.42;11.02;;;;;;;;;;5041312;28;20555;-47
2022/11/15 12:22:10;;;;;;;31.38;12.23;;;;;;;;;;5052968;28;20084;-45
2022/11/15 12:24:40;;;;;;;29.55;12.27;;;;;;;;;;5037754;28;20530;-47
2022/11/15 12:27:08;;;;;;;30.33;12.30;;;;;;;;;;5047123;28;20140;-47
2022/11/15 12:29:36;;;;;;;34.75;13.40;;;;;;;;;;5053316;28;20144;-46
2022/11/15 12:32:05;;;;;;;31.55;12.82;;;;;;;;;;5039831;28;20468;-45
2022/11/15 12:34:41;;;;;;;31.33;12.45;;;;;;;;;;5033009;28;20447;-50
2022/11/15 12:37:25;;;;;;;27.20;11.55;;;;;;;;;;5036264;28;20750;-46
2022/11/15 12:40:06;;;;;;;34.08;12.57;;;;;;;;;;5035775;28;20156;-49
2022/11/15 12:42:37;;;;;;;32.10;13.35;;;;;;;;;;5036037;28;20071;-45
2022/11/15 12:45:23;;;;;;;31.33;12.57;;;;;;;;;;5046757;28;20148;-47
2022/11/15 12:47:51;;;;;;;32.00;14.13;;;;;;;;;;5043615;28;20049;-47
2022/11/15 12:50:37;;;;;;;29.25;12.10;;;;;;;;;;5049930;28;20049;-47
2022/11/15 12:53:18;;;;;;;39.58;14.13;;;;;;;;;;5047789;28;20541;-47
2022/11/15 12:56:06;;;;;;;33.25;12.50;;;;;;;;;;5046868;28;20055;-47
2022/11/15 12:58:41;;;;;;;30.13;12.30;;;;;;;;;;5047419;28;20445;-47
2022/11/15 13:01:07;;;;;;;30.85;13.05;;;;;;;;;;5046422;28;20165;-49
2022/11/15 13:03:34;;;;;;;37.80;16.95;;;;;;;;;;5049904;28;20140;-46
2022/11/15 13:06:03;;;;;;;26.10;11.00;;;;;;;;;;5043730;28;20152;-46
2022/11/15 13:08:39;;;;;;;30.38;12.68;;;;;;;;;;5048954;28;20132;-46
2022/11/15 13:11:35;;;;;;;31.42;11.00;;;;;;;;;;5045482;28;20140;-47
2022/11/15 13:14:01;;;;;;;;;;;;;;;;;;4985007;28;20161;-47
2022/11/15 13:16:28;;;;;;;;;;;;;;;;;;5036711;28;20011;-47
2022/11/15 13:18:55;;;;;;;31.67;11.55;;;;;;;;;;5051806;28;20031;-48
2022/11/15 13:24:13;;;;;;;34.65;12.90;;;;;;;;;;5051965;28;20147;-48
2022/11/15 13:26:40;;;;;;;35.42;13.80;;;;;;;;;;5052297;28;20049;-47
2022/11/15 13:29:15;;;;;;;34.28;13.50;;;;;;;;;;5050118;28;20132;-47
2022/11/15 13:31:43;;;;;;;38.55;13.98;;;;;;;;;;5042345;28;20135;-46
2022/11/15 13:34:21;;;;;;;31.33;12.13;;;;;;;;;;5040373;28;21987;-49
2022/11/15 13:36:47;;;;;;;32.22;12.93;;;;;;;;;;5036158;28;20458;-48
2022/11/15 13:39:15;;;;;;;32.65;13.50;;;;;;;;;;5035577;28;20041;-49
2022/11/15 13:41:47;;;;;;;32.20;13.90;;;;;;;;;;5035516;28;20140;-48
2022/11/15 13:44:20;;;;;;;26.63;10.60;;;;;;;;;;5043519;28;20060;-51
2022/11/15 13:46:46;;;;;;;29.30;11.82;;;;;;;;;;5037039;28;20056;-46
2022/11/15 13:49:12;;;;;;;27.85;11.63;;;;;;;;;;5049052;28;20055;-49
2022/11/15 13:51:43;;;;;;;28.25;11.13;;;;;;;;;;5050770;28;20144;-48
2022/11/15 13:54:15;;;;;;;29.20;11.95;;;;;;;;;;5036930;28;20152;-52
2022/11/15 13:56:46;;;;;;;29.27;10.63;;;;;;;;;;5039501;28;20137;-46
2022/11/15 13:59:16;;;;;;;30.92;12.48;;;;;;;;;;5044778;28;20592;-46
2022/11/15 14:01:43;;;;;;;23.80;10.63;;;;;;;;;;5036899;28;20064;-46
2022/11/15 14:04:12;;;;;;;26.50;10.00;;;;;;;;;;5049850;28;20056;-49
2022/11/15 14:06:45;;;;;;;24.33;10.02;;;;;;;;;;5041561;28;20067;-48
2022/11/15 14:09:38;;;;;;;27.25;10.80;;;;;;;;;;5051133;28;20049;-48
2022/11/15 14:12:19;;;;;;;28.63;10.20;;;;;;;;;;5050724;28;20137;-48
2022/11/15 14:14:46;;;;;;;22.30;9.98;;;;;;;;;;5046169;28;20107;-48
2022/11/15 14:17:19;;;;;;;24.65;10.88;;;;;;;;;;5046728;28;20079;-48
2022/11/15 14:19:46;;;;;;;29.90;11.18;;;;;;;;;;5033375;28;20128;-49
2022/11/15 14:22:20;;;;;;;27.85;10.85;;;;;;;;;;5039918;28;20144;-50
2022/11/15 14:24:47;;;;;;;32.70;13.18;;;;;;;;;;5040353;28;20049;-49
2022/11/15 14:27:21;;;;;;;27.58;10.23;;;;;;;;;;5038686;28;20517;-47
2022/11/15 14:29:49;;;;;;;26.13;9.85;;;;;;;;;;5042012;28;20128;-47
2022/11/15 14:32:17;;;;;;;27.25;9.93;;;;;;;;;;5047277;28;20135;-49
2022/11/15 14:34:43;;;;;;;25.58;9.50;;;;;;;;;;5032518;28;20136;-49
2022/11/15 14:37:20;;;;;;;22.77;9.57;;;;;;;;;;5037001;28;20138;-49
2022/11/15 14:39:46;;;;;;;25.27;10.43;;;;;;;;;;5040569;28;20083;-48
2022/11/15 14:42:13;;;;;;;27.98;11.02;;;;;;;;;;5038932;28;20541;-49
2022/11/15 14:44:39;;;;;;;23.10;10.40;;;;;;;;;;5042462;28;20049;-49
2022/11/15 14:47:05;;;;;;;30.88;11.48;;;;;;;;;;5046152;28;20140;-49
2022/11/15 14:49:32;;;;;;;26.98;11.18;;;;;;;;;;5039624;28;20049;-48